sensor_id;sensor_type;location;lat;lon;timestamp;P1;durP1;ratioP1;P2;durP2;ratioP2
5167;SDS011;2603;48.918;8.980;2023-03-20T00:02:18;5.33;;;2.40;;
5167;SDS011;2603;48.918;8.980;2023-03-20T00:04:46;3.40;;;2.20;;
5167;SDS011;2603;48.918;8.980;2023-03-20T00:07:12;4.23;;;2.70;;
5167;SDS011;2603;48.918;8.980;2023-03-20T00:09:39;5.00;;;2.13;;
5167;SDS011;2603;48.918;8.980;2023-03-20T00:12:08;3.63;;;2.23;;
5167;SDS011;2603;48.918;8.980;2023-03-20T00:14:35;2.90;;;1.83;;
5167;SDS011;2603;48.918;8.980;2023-03-20T00:17:04;5.60;;;2.33;;
5167;SDS011;2603;48.918;8.980;2023-03-20T00:19:35;2.37;;;1.50;;
5167;SDS011;2603;48.918;8.980;2023-03-20T00:22:01;4.20;;;2.20;;
5167;SDS011;2603;48.918;8.980;2023-03-20T00:24:29;3.10;;;2.00;;
5167;SDS011;2603;48.918;8.980;2023-03-20T00:26:56;4.17;;;2.07;;
5167;SDS011;2603;48.918;8.980;2023-03-20T00:29:24;5.40;;;2.60;;
5167;SDS011;2603;48.918;8.980;2023-03-20T00:31:52;3.60;;;2.50;;
5167;SDS011;2603;48.918;8.980;2023-03-20T00:34:20;3.57;;;2.47;;
5167;SDS011;2603;48.918;8.980;2023-03-20T00:36:49;4.17;;;3.50;;
5167;SDS011;2603;48.918;8.980;2023-03-20T00:39:16;4.10;;;3.10;;
5167;SDS011;2603;48.918;8.980;2023-03-20T00:41:43;3.80;;;2.87;;
5167;SDS011;2603;48.918;8.980;2023-03-20T00:44:17;10.03;;;3.07;;
5167;SDS011;2603;48.918;8.980;2023-03-20T00:46:48;3.57;;;2.50;;
5167;SDS011;2603;48.918;8.980;2023-03-20T00:49:15;6.30;;;2.63;;
5167;SDS011;2603;48.918;8.980;2023-03-20T00:51:43;8.33;;;3.23;;
5167;SDS011;2603;48.918;8.980;2023-03-20T00:54:11;13.13;;;4.07;;
5167;SDS011;2603;48.918;8.980;2023-03-20T00:56:39;5.30;;;3.87;;
5167;SDS011;2603;48.918;8.980;2023-03-20T00:59:06;4.30;;;2.83;;
5167;SDS011;2603;48.918;8.980;2023-03-20T01:01:40;3.90;;;3.17;;
5167;SDS011;2603;48.918;8.980;2023-03-20T01:04:10;5.30;;;3.53;;
5167;SDS011;2603;48.918;8.980;2023-03-20T01:06:36;9.13;;;3.10;;
5167;SDS011;2603;48.918;8.980;2023-03-20T01:09:03;5.77;;;3.40;;
5167;SDS011;2603;48.918;8.980;2023-03-20T01:11:30;6.17;;;3.43;;
5167;SDS011;2603;48.918;8.980;2023-03-20T01:13:56;6.73;;;3.17;;
5167;SDS011;2603;48.918;8.980;2023-03-20T01:16:24;3.50;;;2.50;;
5167;SDS011;2603;48.918;8.980;2023-03-20T01:18:52;5.53;;;2.77;;
5167;SDS011;2603;48.918;8.980;2023-03-20T01:21:21;3.77;;;2.30;;
5167;SDS011;2603;48.918;8.980;2023-03-20T01:23:48;3.37;;;2.43;;
5167;SDS011;2603;48.918;8.980;2023-03-20T01:26:18;3.90;;;2.73;;
5167;SDS011;2603;48.918;8.980;2023-03-20T01:28:48;5.03;;;3.40;;
5167;SDS011;2603;48.918;8.980;2023-03-20T01:31:15;6.43;;;3.73;;
5167;SDS011;2603;48.918;8.980;2023-03-20T01:33:42;6.43;;;4.27;;
5167;SDS011;2603;48.918;8.980;2023-03-20T01:36:09;7.13;;;3.67;;
5167;SDS011;2603;48.918;8.980;2023-03-20T01:38:38;6.47;;;4.50;;
5167;SDS011;2603;48.918;8.980;2023-03-20T01:41:07;6.33;;;4.27;;
5167;SDS011;2603;48.918;8.980;2023-03-20T01:43:39;5.57;;;4.20;;
5167;SDS011;2603;48.918;8.980;2023-03-20T01:46:14;6.57;;;5.27;;
5167;SDS011;2603;48.918;8.980;2023-03-20T01:51:34;12.20;;;5.60;;
5167;SDS011;2603;48.918;8.980;2023-03-20T01:54:11;5.60;;;4.03;;
5167;SDS011;2603;48.918;8.980;2023-03-20T01:56:49;4.93;;;3.73;;
5167;SDS011;2603;48.918;8.980;2023-03-20T01:59:21;5.07;;;3.27;;
5167;SDS011;2603;48.918;8.980;2023-03-20T02:01:49;4.83;;;3.40;;
5167;SDS011;2603;48.918;8.980;2023-03-20T02:04:18;6.20;;;3.23;;
5167;SDS011;2603;48.918;8.980;2023-03-20T02:06:53;5.40;;;3.30;;
5167;SDS011;2603;48.918;8.980;2023-03-20T02:09:36;6.83;;;3.17;;
5167;SDS011;2603;48.918;8.980;2023-03-20T02:12:07;9.43;;;4.10;;
5167;SDS011;2603;48.918;8.980;2023-03-20T02:14:35;3.77;;;2.60;;
5167;SDS011;2603;48.918;8.980;2023-03-20T02:24:07;5.73;;;3.00;;
5167;SDS011;2603;48.918;8.980;2023-03-20T02:26:56;4.03;;;2.70;;
5167;SDS011;2603;48.918;8.980;2023-03-20T02:29:46;3.97;;;2.53;;
5167;SDS011;2603;48.918;8.980;2023-03-20T02:32:30;4.47;;;2.53;;
5167;SDS011;2603;48.918;8.980;2023-03-20T02:35:22;4.60;;;2.20;;
5167;SDS011;2603;48.918;8.980;2023-03-20T02:38:02;4.13;;;2.60;;
5167;SDS011;2603;48.918;8.980;2023-03-20T02:40:46;4.87;;;3.10;;
5167;SDS011;2603;48.918;8.980;2023-03-20T02:43:17;3.57;;;2.53;;
5167;SDS011;2603;48.918;8.980;2023-03-20T02:45:50;3.57;;;2.50;;
5167;SDS011;2603;48.918;8.980;2023-03-20T02:48:24;3.70;;;2.60;;
5167;SDS011;2603;48.918;8.980;2023-03-20T02:50:56;5.10;;;2.70;;
5167;SDS011;2603;48.918;8.980;2023-03-20T02:53:33;5.93;;;2.90;;
5167;SDS011;2603;48.918;8.980;2023-03-20T02:56:06;5.00;;;2.40;;
5167;SDS011;2603;48.918;8.980;2023-03-20T02:58:41;3.93;;;2.83;;
5167;SDS011;2603;48.918;8.980;2023-03-20T03:01:12;4.80;;;2.33;;
5167;SDS011;2603;48.918;8.980;2023-03-20T03:03:42;2.87;;;1.93;;
5167;SDS011;2603;48.918;8.980;2023-03-20T03:06:11;6.37;;;3.13;;
5167;SDS011;2603;48.918;8.980;2023-03-20T03:08:46;4.73;;;2.63;;
5167;SDS011;2603;48.918;8.980;2023-03-20T03:11:15;3.53;;;1.70;;
5167;SDS011;2603;48.918;8.980;2023-03-20T03:13:43;4.70;;;1.90;;
5167;SDS011;2603;48.918;8.980;2023-03-20T03:16:13;3.50;;;1.90;;
5167;SDS011;2603;48.918;8.980;2023-03-20T03:18:42;5.00;;;2.97;;
5167;SDS011;2603;48.918;8.980;2023-03-20T03:21:11;3.47;;;2.80;;
5167;SDS011;2603;48.918;8.980;2023-03-20T03:23:39;12.67;;;3.97;;
5167;SDS011;2603;48.918;8.980;2023-03-20T03:26:11;5.33;;;2.87;;
5167;SDS011;2603;48.918;8.980;2023-03-20T03:28:41;5.07;;;3.00;;
5167;SDS011;2603;48.918;8.980;2023-03-20T03:31:10;5.37;;;3.43;;
5167;SDS011;2603;48.918;8.980;2023-03-20T03:33:38;4.10;;;2.27;;
5167;SDS011;2603;48.918;8.980;2023-03-20T03:36:09;10.20;;;5.50;;
5167;SDS011;2603;48.918;8.980;2023-03-20T03:38:40;5.00;;;2.87;;
5167;SDS011;2603;48.918;8.980;2023-03-20T03:41:17;2.17;;;1.53;;
5167;SDS011;2603;48.918;8.980;2023-03-20T03:43:49;3.20;;;1.93;;
5167;SDS011;2603;48.918;8.980;2023-03-20T03:46:21;4.70;;;2.70;;
5167;SDS011;2603;48.918;8.980;2023-03-20T03:48:51;6.60;;;3.90;;
5167;SDS011;2603;48.918;8.980;2023-03-20T03:51:22;6.03;;;5.33;;
5167;SDS011;2603;48.918;8.980;2023-03-20T03:54:04;3.03;;;2.70;;
5167;SDS011;2603;48.918;8.980;2023-03-20T03:56:34;5.10;;;2.23;;
5167;SDS011;2603;48.918;8.980;2023-03-20T03:59:04;3.77;;;3.00;;
5167;SDS011;2603;48.918;8.980;2023-03-20T04:01:31;3.60;;;2.47;;
5167;SDS011;2603;48.918;8.980;2023-03-20T04:04:00;3.00;;;2.07;;
5167;SDS011;2603;48.918;8.980;2023-03-20T04:06:28;6.23;;;2.43;;
5167;SDS011;2603;48.918;8.980;2023-03-20T04:08:55;4.67;;;1.80;;
5167;SDS011;2603;48.918;8.980;2023-03-20T04:11:22;3.17;;;2.10;;
5167;SDS011;2603;48.918;8.980;2023-03-20T04:13:51;2.60;;;1.53;;
5167;SDS011;2603;48.918;8.980;2023-03-20T04:16:20;2.43;;;1.40;;
5167;SDS011;2603;48.918;8.980;2023-03-20T04:18:47;4.23;;;1.87;;
5167;SDS011;2603;48.918;8.980;2023-03-20T04:21:14;2.37;;;1.87;;
5167;SDS011;2603;48.918;8.980;2023-03-20T04:23:42;2.97;;;1.70;;
5167;SDS011;2603;48.918;8.980;2023-03-20T04:26:09;5.10;;;2.37;;
5167;SDS011;2603;48.918;8.980;2023-03-20T04:28:37;3.50;;;1.80;;
5167;SDS011;2603;48.918;8.980;2023-03-20T04:31:25;3.10;;;2.23;;
5167;SDS011;2603;48.918;8.980;2023-03-20T04:34:09;4.10;;;2.17;;
5167;SDS011;2603;48.918;8.980;2023-03-20T04:36:38;2.63;;;1.93;;
5167;SDS011;2603;48.918;8.980;2023-03-20T04:39:07;2.93;;;1.73;;
5167;SDS011;2603;48.918;8.980;2023-03-20T04:41:33;2.93;;;1.60;;
5167;SDS011;2603;48.918;8.980;2023-03-20T04:44:01;2.53;;;1.63;;
5167;SDS011;2603;48.918;8.980;2023-03-20T04:46:30;2.33;;;1.50;;
5167;SDS011;2603;48.918;8.980;2023-03-20T04:48:58;4.73;;;1.50;;
5167;SDS011;2603;48.918;8.980;2023-03-20T04:51:27;2.50;;;1.00;;
5167;SDS011;2603;48.918;8.980;2023-03-20T04:53:54;1.80;;;1.10;;
5167;SDS011;2603;48.918;8.980;2023-03-20T04:56:21;2.57;;;1.40;;
5167;SDS011;2603;48.918;8.980;2023-03-20T04:58:49;1.93;;;1.13;;
5167;SDS011;2603;48.918;8.980;2023-03-20T05:01:18;2.10;;;1.27;;
5167;SDS011;2603;48.918;8.980;2023-03-20T05:03:46;2.80;;;1.20;;
5167;SDS011;2603;48.918;8.980;2023-03-20T05:06:13;1.80;;;0.93;;
5167;SDS011;2603;48.918;8.980;2023-03-20T05:08:41;3.83;;;1.40;;
5167;SDS011;2603;48.918;8.980;2023-03-20T05:11:08;1.73;;;1.10;;
5167;SDS011;2603;48.918;8.980;2023-03-20T05:13:53;2.13;;;1.23;;
5167;SDS011;2603;48.918;8.980;2023-03-20T05:16:34;2.37;;;1.20;;
5167;SDS011;2603;48.918;8.980;2023-03-20T05:19:25;1.97;;;1.40;;
5167;SDS011;2603;48.918;8.980;2023-03-20T05:22:09;7.33;;;1.90;;
5167;SDS011;2603;48.918;8.980;2023-03-20T05:24:44;2.90;;;1.77;;
5167;SDS011;2603;48.918;8.980;2023-03-20T05:27:31;3.87;;;1.67;;
5167;SDS011;2603;48.918;8.980;2023-03-20T05:30:21;2.00;;;1.50;;
5167;SDS011;2603;48.918;8.980;2023-03-20T05:33:25;2.70;;;1.63;;
5167;SDS011;2603;48.918;8.980;2023-03-20T05:36:06;3.80;;;2.30;;
5167;SDS011;2603;48.918;8.980;2023-03-20T05:38:55;3.70;;;1.97;;
5167;SDS011;2603;48.918;8.980;2023-03-20T05:42:00;7.60;;;2.20;;
5167;SDS011;2603;48.918;8.980;2023-03-20T05:44:56;4.87;;;1.93;;
5167;SDS011;2603;48.918;8.980;2023-03-20T05:47:41;4.00;;;2.00;;
5167;SDS011;2603;48.918;8.980;2023-03-20T05:50:25;3.53;;;1.80;;
5167;SDS011;2603;48.918;8.980;2023-03-20T05:53:11;3.47;;;2.47;;
5167;SDS011;2603;48.918;8.980;2023-03-20T05:56:01;3.40;;;2.00;;
5167;SDS011;2603;48.918;8.980;2023-03-20T05:58:39;2.90;;;1.90;;
5167;SDS011;2603;48.918;8.980;2023-03-20T06:01:26;5.20;;;2.10;;
5167;SDS011;2603;48.918;8.980;2023-03-20T06:04:15;3.83;;;1.90;;
5167;SDS011;2603;48.918;8.980;2023-03-20T06:07:08;5.87;;;2.60;;
5167;SDS011;2603;48.918;8.980;2023-03-20T06:09:39;6.93;;;1.70;;
5167;SDS011;2603;48.918;8.980;2023-03-20T06:12:11;2.73;;;1.70;;
5167;SDS011;2603;48.918;8.980;2023-03-20T06:14:38;3.10;;;1.87;;
5167;SDS011;2603;48.918;8.980;2023-03-20T06:17:06;4.23;;;1.70;;
5167;SDS011;2603;48.918;8.980;2023-03-20T06:19:33;2.70;;;1.50;;
5167;SDS011;2603;48.918;8.980;2023-03-20T06:22:00;3.30;;;2.00;;
5167;SDS011;2603;48.918;8.980;2023-03-20T06:24:28;4.03;;;1.40;;
5167;SDS011;2603;48.918;8.980;2023-03-20T06:26:57;3.13;;;1.87;;
5167;SDS011;2603;48.918;8.980;2023-03-20T06:29:24;3.60;;;1.50;;
5167;SDS011;2603;48.918;8.980;2023-03-20T06:31:53;1.70;;;1.20;;
5167;SDS011;2603;48.918;8.980;2023-03-20T06:34:25;1.73;;;1.10;;
5167;SDS011;2603;48.918;8.980;2023-03-20T06:36:52;2.40;;;1.30;;
5167;SDS011;2603;48.918;8.980;2023-03-20T06:39:21;2.90;;;1.57;;
5167;SDS011;2603;48.918;8.980;2023-03-20T06:41:48;4.23;;;1.70;;
5167;SDS011;2603;48.918;8.980;2023-03-20T06:44:17;3.10;;;1.97;;
5167;SDS011;2603;48.918;8.980;2023-03-20T06:47:05;3.10;;;1.83;;
5167;SDS011;2603;48.918;8.980;2023-03-20T06:49:31;3.30;;;1.80;;
5167;SDS011;2603;48.918;8.980;2023-03-20T06:51:58;2.83;;;2.10;;
5167;SDS011;2603;48.918;8.980;2023-03-20T06:54:26;4.10;;;2.67;;
5167;SDS011;2603;48.918;8.980;2023-03-20T06:56:53;2.37;;;1.50;;
5167;SDS011;2603;48.918;8.980;2023-03-20T06:59:21;9.20;;;1.50;;
5167;SDS011;2603;48.918;8.980;2023-03-20T07:01:53;2.00;;;1.20;;
5167;SDS011;2603;48.918;8.980;2023-03-20T07:04:20;2.70;;;1.60;;
5167;SDS011;2603;48.918;8.980;2023-03-20T07:06:51;2.63;;;1.40;;
5167;SDS011;2603;48.918;8.980;2023-03-20T07:09:17;2.87;;;1.83;;
5167;SDS011;2603;48.918;8.980;2023-03-20T07:11:46;2.20;;;1.47;;
5167;SDS011;2603;48.918;8.980;2023-03-20T07:14:13;2.93;;;1.60;;
5167;SDS011;2603;48.918;8.980;2023-03-20T07:16:53;3.20;;;1.90;;
5167;SDS011;2603;48.918;8.980;2023-03-20T07:19:20;3.33;;;2.10;;
5167;SDS011;2603;48.918;8.980;2023-03-20T07:21:51;3.00;;;1.93;;
5167;SDS011;2603;48.918;8.980;2023-03-20T07:24:21;4.20;;;1.83;;
5167;SDS011;2603;48.918;8.980;2023-03-20T07:26:47;3.03;;;1.57;;
5167;SDS011;2603;48.918;8.980;2023-03-20T07:29:14;3.60;;;1.67;;
5167;SDS011;2603;48.918;8.980;2023-03-20T07:31:41;3.03;;;1.60;;
5167;SDS011;2603;48.918;8.980;2023-03-20T07:34:20;5.20;;;1.87;;
5167;SDS011;2603;48.918;8.980;2023-03-20T07:36:48;2.70;;;1.70;;
5167;SDS011;2603;48.918;8.980;2023-03-20T07:39:18;5.97;;;1.70;;
5167;SDS011;2603;48.918;8.980;2023-03-20T07:41:55;3.77;;;2.30;;
5167;SDS011;2603;48.918;8.980;2023-03-20T07:44:35;4.20;;;2.40;;
5167;SDS011;2603;48.918;8.980;2023-03-20T07:47:07;2.77;;;1.60;;
5167;SDS011;2603;48.918;8.980;2023-03-20T07:49:36;4.80;;;1.80;;
5167;SDS011;2603;48.918;8.980;2023-03-20T07:52:02;3.43;;;2.23;;
5167;SDS011;2603;48.918;8.980;2023-03-20T07:54:30;4.00;;;2.70;;
5167;SDS011;2603;48.918;8.980;2023-03-20T07:56:56;9.23;;;2.70;;
5167;SDS011;2603;48.918;8.980;2023-03-20T07:59:23;3.77;;;2.80;;
5167;SDS011;2603;48.918;8.980;2023-03-20T08:01:49;4.23;;;3.10;;
5167;SDS011;2603;48.918;8.980;2023-03-20T08:04:16;4.90;;;2.70;;
5167;SDS011;2603;48.918;8.980;2023-03-20T08:06:46;4.27;;;3.00;;
5167;SDS011;2603;48.918;8.980;2023-03-20T08:09:13;3.83;;;2.93;;
5167;SDS011;2603;48.918;8.980;2023-03-20T08:11:39;8.10;;;2.70;;
5167;SDS011;2603;48.918;8.980;2023-03-20T08:14:06;9.40;;;2.93;;
5167;SDS011;2603;48.918;8.980;2023-03-20T08:16:32;3.23;;;2.63;;
5167;SDS011;2603;48.918;8.980;2023-03-20T08:18:59;10.90;;;3.30;;
5167;SDS011;2603;48.918;8.980;2023-03-20T08:21:27;5.23;;;3.00;;
5167;SDS011;2603;48.918;8.980;2023-03-20T08:23:55;5.70;;;3.97;;
5167;SDS011;2603;48.918;8.980;2023-03-20T08:26:22;4.67;;;3.27;;
5167;SDS011;2603;48.918;8.980;2023-03-20T08:28:49;6.53;;;3.90;;
5167;SDS011;2603;48.918;8.980;2023-03-20T08:31:16;5.50;;;3.17;;
5167;SDS011;2603;48.918;8.980;2023-03-20T08:33:42;5.43;;;3.80;;
5167;SDS011;2603;48.918;8.980;2023-03-20T08:36:09;6.97;;;3.80;;
5167;SDS011;2603;48.918;8.980;2023-03-20T08:38:36;7.63;;;3.60;;
5167;SDS011;2603;48.918;8.980;2023-03-20T08:41:04;6.03;;;3.67;;
5167;SDS011;2603;48.918;8.980;2023-03-20T08:43:31;5.87;;;3.93;;
5167;SDS011;2603;48.918;8.980;2023-03-20T08:45:58;5.60;;;3.57;;
5167;SDS011;2603;48.918;8.980;2023-03-20T08:48:24;3.93;;;2.90;;
5167;SDS011;2603;48.918;8.980;2023-03-20T08:50:51;4.80;;;3.50;;
5167;SDS011;2603;48.918;8.980;2023-03-20T08:53:17;4.73;;;3.27;;
5167;SDS011;2603;48.918;8.980;2023-03-20T08:55:46;6.60;;;3.20;;
5167;SDS011;2603;48.918;8.980;2023-03-20T08:58:14;4.80;;;3.03;;
5167;SDS011;2603;48.918;8.980;2023-03-20T09:00:41;4.97;;;3.50;;
5167;SDS011;2603;48.918;8.980;2023-03-20T09:03:10;4.20;;;3.43;;
5167;SDS011;2603;48.918;8.980;2023-03-20T09:05:38;5.37;;;3.47;;
5167;SDS011;2603;48.918;8.980;2023-03-20T09:08:05;8.70;;;3.50;;
5167;SDS011;2603;48.918;8.980;2023-03-20T09:10:31;3.73;;;2.40;;
5167;SDS011;2603;48.918;8.980;2023-03-20T09:12:58;4.20;;;2.73;;
5167;SDS011;2603;48.918;8.980;2023-03-20T09:15:26;4.80;;;3.17;;
5167;SDS011;2603;48.918;8.980;2023-03-20T09:17:53;3.37;;;2.40;;
5167;SDS011;2603;48.918;8.980;2023-03-20T09:20:19;4.00;;;2.93;;
5167;SDS011;2603;48.918;8.980;2023-03-20T09:22:46;3.63;;;2.60;;
5167;SDS011;2603;48.918;8.980;2023-03-20T09:25:13;4.20;;;3.00;;
5167;SDS011;2603;48.918;8.980;2023-03-20T09:27:39;4.90;;;3.13;;
5167;SDS011;2603;48.918;8.980;2023-03-20T09:30:06;5.67;;;2.90;;
5167;SDS011;2603;48.918;8.980;2023-03-20T09:32:36;4.00;;;2.57;;
5167;SDS011;2603;48.918;8.980;2023-03-20T09:35:03;4.70;;;3.00;;
5167;SDS011;2603;48.918;8.980;2023-03-20T09:37:30;6.57;;;3.10;;
5167;SDS011;2603;48.918;8.980;2023-03-20T09:39:57;4.53;;;2.80;;
5167;SDS011;2603;48.918;8.980;2023-03-20T09:42:26;6.40;;;2.90;;
5167;SDS011;2603;48.918;8.980;2023-03-20T09:45:01;4.57;;;2.80;;
5167;SDS011;2603;48.918;8.980;2023-03-20T09:47:32;6.10;;;3.20;;
5167;SDS011;2603;48.918;8.980;2023-03-20T09:50:10;5.40;;;3.60;;
5167;SDS011;2603;48.918;8.980;2023-03-20T09:52:48;6.33;;;3.23;;
5167;SDS011;2603;48.918;8.980;2023-03-20T09:55:20;5.87;;;3.60;;
5167;SDS011;2603;48.918;8.980;2023-03-20T09:57:49;4.77;;;3.37;;
5167;SDS011;2603;48.918;8.980;2023-03-20T10:00:18;4.60;;;2.90;;
5167;SDS011;2603;48.918;8.980;2023-03-20T10:02:49;5.47;;;3.33;;
5167;SDS011;2603;48.918;8.980;2023-03-20T10:05:19;4.77;;;2.90;;
5167;SDS011;2603;48.918;8.980;2023-03-20T10:07:47;4.77;;;3.00;;
5167;SDS011;2603;48.918;8.980;2023-03-20T10:10:15;5.87;;;3.60;;
5167;SDS011;2603;48.918;8.980;2023-03-20T10:12:46;5.63;;;3.17;;
5167;SDS011;2603;48.918;8.980;2023-03-20T10:15:19;7.43;;;4.33;;
5167;SDS011;2603;48.918;8.980;2023-03-20T10:17:53;7.60;;;4.30;;
5167;SDS011;2603;48.918;8.980;2023-03-20T10:20:24;7.20;;;5.00;;
5167;SDS011;2603;48.918;8.980;2023-03-20T10:22:56;6.80;;;4.30;;
5167;SDS011;2603;48.918;8.980;2023-03-20T10:25:25;7.07;;;4.80;;
5167;SDS011;2603;48.918;8.980;2023-03-20T10:27:55;6.30;;;4.50;;
5167;SDS011;2603;48.918;8.980;2023-03-20T10:30:43;7.23;;;5.10;;
5167;SDS011;2603;48.918;8.980;2023-03-20T10:33:20;7.30;;;4.07;;
5167;SDS011;2603;48.918;8.980;2023-03-20T10:35:54;8.23;;;4.77;;
5167;SDS011;2603;48.918;8.980;2023-03-20T10:38:29;9.07;;;5.40;;
5167;SDS011;2603;48.918;8.980;2023-03-20T10:41:01;9.33;;;4.73;;
5167;SDS011;2603;48.918;8.980;2023-03-20T10:43:29;8.03;;;3.70;;
5167;SDS011;2603;48.918;8.980;2023-03-20T10:45:59;10.50;;;5.60;;
5167;SDS011;2603;48.918;8.980;2023-03-20T10:48:29;9.13;;;5.90;;
5167;SDS011;2603;48.918;8.980;2023-03-20T10:50:59;8.83;;;5.50;;
5167;SDS011;2603;48.918;8.980;2023-03-20T10:53:28;13.50;;;5.63;;
5167;SDS011;2603;48.918;8.980;2023-03-20T10:55:58;9.10;;;5.50;;
5167;SDS011;2603;48.918;8.980;2023-03-20T10:58:27;9.63;;;5.70;;
5167;SDS011;2603;48.918;8.980;2023-03-20T11:00:56;10.83;;;5.70;;
5167;SDS011;2603;48.918;8.980;2023-03-20T11:03:24;8.83;;;4.90;;
5167;SDS011;2603;48.918;8.980;2023-03-20T11:05:54;7.70;;;5.17;;
5167;SDS011;2603;48.918;8.980;2023-03-20T11:08:24;6.53;;;4.70;;
5167;SDS011;2603;48.918;8.980;2023-03-20T11:10:57;9.17;;;4.60;;
5167;SDS011;2603;48.918;8.980;2023-03-20T11:13:25;8.93;;;4.87;;
5167;SDS011;2603;48.918;8.980;2023-03-20T11:15:53;6.50;;;4.23;;
5167;SDS011;2603;48.918;8.980;2023-03-20T11:18:20;7.90;;;4.30;;
5167;SDS011;2603;48.918;8.980;2023-03-20T11:20:50;9.07;;;4.93;;
5167;SDS011;2603;48.918;8.980;2023-03-20T11:23:20;7.10;;;4.53;;
5167;SDS011;2603;48.918;8.980;2023-03-20T11:25:51;6.77;;;4.30;;
5167;SDS011;2603;48.918;8.980;2023-03-20T11:28:19;7.63;;;4.90;;
5167;SDS011;2603;48.918;8.980;2023-03-20T11:30:47;7.97;;;4.77;;
5167;SDS011;2603;48.918;8.980;2023-03-20T11:33:15;12.10;;;4.73;;
5167;SDS011;2603;48.918;8.980;2023-03-20T11:35:44;6.83;;;4.23;;
5167;SDS011;2603;48.918;8.980;2023-03-20T11:38:12;7.27;;;4.07;;
5167;SDS011;2603;48.918;8.980;2023-03-20T11:40:41;5.13;;;3.80;;
5167;SDS011;2603;48.918;8.980;2023-03-20T11:43:09;5.80;;;3.47;;
5167;SDS011;2603;48.918;8.980;2023-03-20T11:45:38;10.63;;;4.50;;
5167;SDS011;2603;48.918;8.980;2023-03-20T11:48:05;6.20;;;3.93;;
5167;SDS011;2603;48.918;8.980;2023-03-20T11:50:41;7.20;;;3.70;;
5167;SDS011;2603;48.918;8.980;2023-03-20T11:53:16;6.10;;;4.43;;
5167;SDS011;2603;48.918;8.980;2023-03-20T11:55:56;5.90;;;3.80;;
5167;SDS011;2603;48.918;8.980;2023-03-20T11:58:36;7.03;;;4.00;;
5167;SDS011;2603;48.918;8.980;2023-03-20T12:01:06;6.20;;;3.90;;
5167;SDS011;2603;48.918;8.980;2023-03-20T12:03:39;8.07;;;4.50;;
5167;SDS011;2603;48.918;8.980;2023-03-20T12:06:14;4.93;;;3.40;;
5167;SDS011;2603;48.918;8.980;2023-03-20T12:08:44;6.67;;;3.90;;
5167;SDS011;2603;48.918;8.980;2023-03-20T12:11:20;5.27;;;3.00;;
5167;SDS011;2603;48.918;8.980;2023-03-20T12:13:52;4.90;;;2.67;;
5167;SDS011;2603;48.918;8.980;2023-03-20T12:16:19;7.37;;;3.47;;
5167;SDS011;2603;48.918;8.980;2023-03-20T12:18:50;4.50;;;3.10;;
5167;SDS011;2603;48.918;8.980;2023-03-20T12:21:20;7.33;;;3.10;;
5167;SDS011;2603;48.918;8.980;2023-03-20T12:23:50;4.37;;;2.50;;
5167;SDS011;2603;48.918;8.980;2023-03-20T12:26:21;4.80;;;3.33;;
5167;SDS011;2603;48.918;8.980;2023-03-20T12:28:51;4.60;;;2.67;;
5167;SDS011;2603;48.918;8.980;2023-03-20T12:31:22;4.10;;;2.53;;
5167;SDS011;2603;48.918;8.980;2023-03-20T12:33:51;4.53;;;2.50;;
5167;SDS011;2603;48.918;8.980;2023-03-20T12:36:23;5.53;;;2.60;;
5167;SDS011;2603;48.918;8.980;2023-03-20T12:38:51;3.03;;;2.10;;
5167;SDS011;2603;48.918;8.980;2023-03-20T12:41:21;5.63;;;2.60;;
5167;SDS011;2603;48.918;8.980;2023-03-20T12:43:55;3.53;;;2.30;;
5167;SDS011;2603;48.918;8.980;2023-03-20T12:46:29;5.10;;;3.20;;
5167;SDS011;2603;48.918;8.980;2023-03-20T12:49:04;5.63;;;2.63;;
5167;SDS011;2603;48.918;8.980;2023-03-20T12:51:39;5.20;;;2.80;;
5167;SDS011;2603;48.918;8.980;2023-03-20T12:54:16;4.83;;;3.07;;
5167;SDS011;2603;48.918;8.980;2023-03-20T12:56:53;5.90;;;3.00;;
5167;SDS011;2603;48.918;8.980;2023-03-20T12:59:26;3.43;;;2.30;;
5167;SDS011;2603;48.918;8.980;2023-03-20T13:01:55;5.00;;;2.47;;
5167;SDS011;2603;48.918;8.980;2023-03-20T13:07:16;4.97;;;2.57;;
5167;SDS011;2603;48.918;8.980;2023-03-20T13:09:53;5.17;;;2.13;;
5167;SDS011;2603;48.918;8.980;2023-03-20T13:12:41;2.53;;;1.77;;
5167;SDS011;2603;48.918;8.980;2023-03-20T13:15:18;2.67;;;1.70;;
5167;SDS011;2603;48.918;8.980;2023-03-20T13:17:49;3.37;;;1.80;;
5167;SDS011;2603;48.918;8.980;2023-03-20T13:20:23;2.77;;;1.53;;
5167;SDS011;2603;48.918;8.980;2023-03-20T13:22:59;4.63;;;1.60;;
5167;SDS011;2603;48.918;8.980;2023-03-20T13:25:37;2.93;;;1.60;;
5167;SDS011;2603;48.918;8.980;2023-03-20T13:28:12;2.77;;;1.40;;
5167;SDS011;2603;48.918;8.980;2023-03-20T13:30:41;3.87;;;1.50;;
5167;SDS011;2603;48.918;8.980;2023-03-20T13:33:15;2.70;;;1.43;;
5167;SDS011;2603;48.918;8.980;2023-03-20T13:35:50;3.47;;;1.80;;
5167;SDS011;2603;48.918;8.980;2023-03-20T13:38:19;3.00;;;1.93;;
5167;SDS011;2603;48.918;8.980;2023-03-20T13:40:48;4.90;;;1.73;;
5167;SDS011;2603;48.918;8.980;2023-03-20T13:43:22;3.43;;;1.77;;
5167;SDS011;2603;48.918;8.980;2023-03-20T13:46:00;3.00;;;1.53;;
5167;SDS011;2603;48.918;8.980;2023-03-20T13:48:32;2.20;;;1.40;;
5167;SDS011;2603;48.918;8.980;2023-03-20T13:51:03;2.70;;;1.50;;
5167;SDS011;2603;48.918;8.980;2023-03-20T13:53:37;3.83;;;1.80;;
5167;SDS011;2603;48.918;8.980;2023-03-20T13:56:11;5.40;;;2.03;;
5167;SDS011;2603;48.918;8.980;2023-03-20T13:58:47;4.47;;;2.90;;
5167;SDS011;2603;48.918;8.980;2023-03-20T14:01:20;3.87;;;2.80;;
5167;SDS011;2603;48.918;8.980;2023-03-20T14:03:50;3.20;;;2.20;;
5167;SDS011;2603;48.918;8.980;2023-03-20T14:06:17;3.73;;;1.90;;
5167;SDS011;2603;48.918;8.980;2023-03-20T14:09:04;3.77;;;2.40;;
5167;SDS011;2603;48.918;8.980;2023-03-20T14:11:51;3.53;;;2.33;;
5167;SDS011;2603;48.918;8.980;2023-03-20T14:14:22;3.20;;;1.70;;
5167;SDS011;2603;48.918;8.980;2023-03-20T14:16:58;3.90;;;1.90;;
5167;SDS011;2603;48.918;8.980;2023-03-20T14:19:33;3.50;;;1.80;;
5167;SDS011;2603;48.918;8.980;2023-03-20T14:22:01;3.23;;;1.80;;
5167;SDS011;2603;48.918;8.980;2023-03-20T14:24:27;6.53;;;2.30;;
5167;SDS011;2603;48.918;8.980;2023-03-20T14:26:55;7.30;;;2.90;;
5167;SDS011;2603;48.918;8.980;2023-03-20T14:29:34;6.63;;;3.03;;
5167;SDS011;2603;48.918;8.980;2023-03-20T14:34:49;5.00;;;3.40;;
5167;SDS011;2603;48.918;8.980;2023-03-20T14:37:26;3.13;;;2.20;;
5167;SDS011;2603;48.918;8.980;2023-03-20T14:39:57;9.60;;;2.80;;
5167;SDS011;2603;48.918;8.980;2023-03-20T14:42:36;5.73;;;2.70;;
5167;SDS011;2603;48.918;8.980;2023-03-20T14:45:17;4.13;;;2.50;;
5167;SDS011;2603;48.918;8.980;2023-03-20T14:47:52;4.90;;;3.20;;
5167;SDS011;2603;48.918;8.980;2023-03-20T14:50:24;4.00;;;2.63;;
5167;SDS011;2603;48.918;8.980;2023-03-20T14:52:58;6.70;;;2.80;;
5167;SDS011;2603;48.918;8.980;2023-03-20T14:55:32;4.40;;;2.97;;
5167;SDS011;2603;48.918;8.980;2023-03-20T14:58:03;4.30;;;2.77;;
5167;SDS011;2603;48.918;8.980;2023-03-20T15:00:34;4.13;;;2.23;;
5167;SDS011;2603;48.918;8.980;2023-03-20T15:03:12;5.60;;;2.50;;
5167;SDS011;2603;48.918;8.980;2023-03-20T15:05:40;4.23;;;2.30;;
5167;SDS011;2603;48.918;8.980;2023-03-20T15:08:07;4.13;;;2.33;;
5167;SDS011;2603;48.918;8.980;2023-03-20T15:10:37;4.27;;;2.67;;
5167;SDS011;2603;48.918;8.980;2023-03-20T15:13:09;3.90;;;2.37;;
5167;SDS011;2603;48.918;8.980;2023-03-20T15:15:37;4.63;;;2.40;;
5167;SDS011;2603;48.918;8.980;2023-03-20T15:18:09;4.07;;;2.20;;
5167;SDS011;2603;48.918;8.980;2023-03-20T15:20:37;3.60;;;2.07;;
5167;SDS011;2603;48.918;8.980;2023-03-20T15:23:08;3.23;;;1.90;;
5167;SDS011;2603;48.918;8.980;2023-03-20T15:25:37;7.33;;;2.07;;
5167;SDS011;2603;48.918;8.980;2023-03-20T15:28:04;5.63;;;2.67;;
5167;SDS011;2603;48.918;8.980;2023-03-20T15:30:32;4.50;;;2.60;;
5167;SDS011;2603;48.918;8.980;2023-03-20T15:33:01;4.23;;;2.80;;
5167;SDS011;2603;48.918;8.980;2023-03-20T15:35:28;5.90;;;2.47;;
5167;SDS011;2603;48.918;8.980;2023-03-20T15:37:54;3.87;;;2.30;;
5167;SDS011;2603;48.918;8.980;2023-03-20T15:40:23;6.67;;;2.50;;
5167;SDS011;2603;48.918;8.980;2023-03-20T15:42:51;4.77;;;2.83;;
5167;SDS011;2603;48.918;8.980;2023-03-20T15:45:21;3.97;;;2.10;;
5167;SDS011;2603;48.918;8.980;2023-03-20T15:47:57;5.67;;;2.50;;
5167;SDS011;2603;48.918;8.980;2023-03-20T15:50:26;4.07;;;2.33;;
5167;SDS011;2603;48.918;8.980;2023-03-20T15:52:56;6.80;;;2.50;;
5167;SDS011;2603;48.918;8.980;2023-03-20T15:55:23;3.90;;;2.60;;
5167;SDS011;2603;48.918;8.980;2023-03-20T15:57:52;4.20;;;2.10;;